createdAt,value
2022-12-18T00:00:29.130Z,18.93
2022-12-18T00:02:31.826Z,18.47
2022-12-18T00:04:34.680Z,19.07
2022-12-18T00:06:37.646Z,18.27
2022-12-18T00:08:41.745Z,18.60
2022-12-18T00:10:45.001Z,18.13
2022-12-18T00:12:50.289Z,20.90
2022-12-18T00:14:53.227Z,18.67
2022-12-18T00:16:56.013Z,18.97
2022-12-18T00:19:01.913Z,19.07
2022-12-18T00:21:07.891Z,21.07
2022-12-18T00:23:10.827Z,19.50
2022-12-18T00:25:14.901Z,17.53
2022-12-18T00:27:17.769Z,17.53
2022-12-18T00:29:20.579Z,18.17
2022-12-18T00:31:25.725Z,17.73
2022-12-18T00:33:29.274Z,18.07
2022-12-18T00:35:33.310Z,19.53
2022-12-18T00:37:36.219Z,17.33
2022-12-18T00:39:39.207Z,17.43
2022-12-18T00:42:00.951Z,19.57
2022-12-18T00:44:04.389Z,17.50
2022-12-18T00:46:07.930Z,19.13
2022-12-18T00:48:10.691Z,18.03
2022-12-18T00:50:13.578Z,17.90
2022-12-18T00:52:16.280Z,18.70
2022-12-18T00:54:19.644Z,18.67
2022-12-18T00:56:26.094Z,19.47
2022-12-18T00:58:30.315Z,19.67
2022-12-18T01:00:33.216Z,19.63
2022-12-18T01:02:36.272Z,20.03
2022-12-18T01:04:39.081Z,22.77
2022-12-18T01:06:42.082Z,19.37
2022-12-18T01:08:45.404Z,19.80
2022-12-18T01:10:48.285Z,20.53
2022-12-18T01:12:51.170Z,20.90
2022-12-18T01:14:55.210Z,22.13
2022-12-18T01:16:58.079Z,21.53
2022-12-18T01:19:00.813Z,22.70
2022-12-18T01:21:08.320Z,21.33
2022-12-18T01:23:11.083Z,21.50
2022-12-18T01:25:13.783Z,20.70
2022-12-18T01:27:16.494Z,20.77
2022-12-18T01:29:19.389Z,22.27
2022-12-18T01:31:25.806Z,21.07
2022-12-18T01:33:28.529Z,23.80
2022-12-18T01:35:31.212Z,23.07
2022-12-18T01:37:34.033Z,22.53
2022-12-18T01:39:36.735Z,22.17
2022-12-18T01:41:57.803Z,20.47
2022-12-18T01:44:00.737Z,23.10
2022-12-18T01:46:04.260Z,22.70
2022-12-18T01:48:10.549Z,21.67
2022-12-18T01:50:16.437Z,22.43
2022-12-18T01:52:20.508Z,23.27
2022-12-18T01:54:23.403Z,22.50
2022-12-18T01:56:26.161Z,21.30
2022-12-18T01:58:37.478Z,20.57
2022-12-18T02:00:40.818Z,21.40
2022-12-18T02:02:45.449Z,21.60
2022-12-18T02:04:49.860Z,21.43
2022-12-18T02:06:58.665Z,19.77
2022-12-18T02:09:11.329Z,21.73
2022-12-18T02:11:23.903Z,20.13
2022-12-18T02:13:37.137Z,20.90
2022-12-18T02:15:45.861Z,21.27
2022-12-18T02:17:56.478Z,20.50
2022-12-18T02:20:15.785Z,20.10
2022-12-18T02:22:31.885Z,21.17
2022-12-18T02:24:40.518Z,19.87
2022-12-18T02:26:48.717Z,20.33
2022-12-18T02:28:57.028Z,19.47
2022-12-18T02:31:03.540Z,18.70
2022-12-18T02:33:10.403Z,19.37
2022-12-18T02:35:16.301Z,19.37
2022-12-18T02:37:21.829Z,18.70
2022-12-18T02:39:28.677Z,18.13
2022-12-18T02:41:33.288Z,19.77
2022-12-18T02:43:38.311Z,19.90
2022-12-18T02:45:49.712Z,20.23
2022-12-18T02:47:52.603Z,20.60
2022-12-18T02:50:03.190Z,19.40
2022-12-18T02:52:10.682Z,19.80
2022-12-18T02:54:23.492Z,19.27
2022-12-18T02:56:30.925Z,20.67
2022-12-18T02:58:48.877Z,19.40
2022-12-18T03:01:01.208Z,18.80
2022-12-18T03:03:09.613Z,20.10
2022-12-18T03:05:16.789Z,19.73
2022-12-18T03:07:24.704Z,19.00
2022-12-18T03:09:33.237Z,18.50
2022-12-18T03:11:57.891Z,17.93
2022-12-18T03:14:02.683Z,17.33
2022-12-18T03:16:09.562Z,17.33
2022-12-18T03:18:16.454Z,18.07
2022-12-18T03:20:22.513Z,17.93
2022-12-18T03:22:29.006Z,17.13
2022-12-18T03:24:33.522Z,17.43
2022-12-18T03:26:39.359Z,17.00
2022-12-18T03:28:47.300Z,17.27
2022-12-18T03:30:55.300Z,16.33
2022-12-18T03:33:04.485Z,16.97
2022-12-18T03:35:09.874Z,16.70
2022-12-18T03:37:13.111Z,17.70
2022-12-18T03:39:16.238Z,16.53
2022-12-18T03:41:25.601Z,18.40
2022-12-18T03:43:39.579Z,16.97
2022-12-18T03:45:50.435Z,17.07
2022-12-18T03:48:03.362Z,17.30
2022-12-18T03:50:12.986Z,17.77
2022-12-18T03:52:22.916Z,17.70
2022-12-18T03:54:27.850Z,18.27
2022-12-18T03:56:33.577Z,16.90
2022-12-18T03:58:40.235Z,16.77
2022-12-18T04:00:45.571Z,17.53
2022-12-18T04:02:53.117Z,16.73
2022-12-18T04:05:01.089Z,16.80
2022-12-18T04:07:04.424Z,17.03
2022-12-18T04:09:07.362Z,17.20
2022-12-18T04:11:10.231Z,17.80
2022-12-18T04:13:12.900Z,16.17
2022-12-18T04:15:15.865Z,16.90
2022-12-18T04:17:18.585Z,16.63
2022-12-18T04:19:21.465Z,16.47
2022-12-18T04:21:25.856Z,16.50
2022-12-18T04:23:29.167Z,15.20
2022-12-18T04:25:31.850Z,15.27
2022-12-18T04:27:34.553Z,15.90
2022-12-18T04:29:37.301Z,16.20
2022-12-18T04:31:40.302Z,15.50
2022-12-18T04:33:43.422Z,15.83
2022-12-18T04:35:46.662Z,14.70
2022-12-18T04:37:50.951Z,15.60
2022-12-18T04:39:53.710Z,14.67
2022-12-18T04:41:56.601Z,14.10
2022-12-18T04:43:59.889Z,14.80
2022-12-18T04:46:06.179Z,14.97
2022-12-18T04:48:09.030Z,14.30
2022-12-18T04:50:12.102Z,13.90
2022-12-18T04:52:14.997Z,14.20
2022-12-18T04:54:21.690Z,14.77
2022-12-18T04:56:25.098Z,14.10
2022-12-18T04:58:27.978Z,14.37
2022-12-18T05:00:30.711Z,14.13
2022-12-18T05:02:33.965Z,14.43
2022-12-18T05:04:36.769Z,14.00
2022-12-18T05:06:39.467Z,14.30
2022-12-18T05:08:42.264Z,14.03
2022-12-18T05:10:46.432Z,13.90
2022-12-18T05:13:01.453Z,14.40
2022-12-18T05:15:08.395Z,14.07
2022-12-18T05:17:11.099Z,14.37
2022-12-18T05:19:14.602Z,13.53
2022-12-18T05:21:17.417Z,14.27
2022-12-18T05:23:20.828Z,12.47
2022-12-18T05:25:24.724Z,13.37
2022-12-18T05:27:28.817Z,14.63
2022-12-18T05:29:31.509Z,13.90
2022-12-18T05:31:39.052Z,13.90
2022-12-18T05:33:43.076Z,13.00
2022-12-18T05:35:46.919Z,13.20
2022-12-18T05:37:49.607Z,12.70
2022-12-18T05:39:52.288Z,13.07
2022-12-18T05:41:55.048Z,12.93
2022-12-18T05:43:59.740Z,13.73
2022-12-18T05:46:07.625Z,13.27
2022-12-18T05:48:11.487Z,14.20
2022-12-18T05:50:14.264Z,15.03
2022-12-18T05:52:17.458Z,13.70
2022-12-18T05:54:20.138Z,14.47
2022-12-18T05:56:24.644Z,13.50
2022-12-18T05:58:27.380Z,13.63
2022-12-18T06:00:32.884Z,13.67
2022-12-18T06:02:35.784Z,14.00
2022-12-18T06:04:38.610Z,14.33
2022-12-18T06:06:41.348Z,14.80
2022-12-18T06:08:46.407Z,14.87
2022-12-18T06:10:53.524Z,14.77
2022-12-18T06:12:56.227Z,14.57
2022-12-18T06:14:58.910Z,15.07
2022-12-18T06:17:02.957Z,15.50
2022-12-18T06:19:07.079Z,16.20
2022-12-18T06:21:10.001Z,14.93
2022-12-18T06:23:12.694Z,14.50
2022-12-18T06:25:15.588Z,14.50
2022-12-18T06:27:18.955Z,14.27
2022-12-18T06:29:21.906Z,14.30
2022-12-18T06:31:24.832Z,14.43
2022-12-18T06:33:29.902Z,14.17
2022-12-18T06:35:33.997Z,13.87
2022-12-18T06:37:36.735Z,14.50
2022-12-18T06:39:39.440Z,14.80
2022-12-18T06:41:42.166Z,13.77
2022-12-18T06:43:45.168Z,15.37
2022-12-18T06:45:53.367Z,14.20
2022-12-18T06:47:56.133Z,14.00
2022-12-18T06:50:01.352Z,15.77
2022-12-18T06:52:04.731Z,43.90
2022-12-18T06:54:07.445Z,29.77
2022-12-18T06:56:11.084Z,15.83
2022-12-18T06:58:13.940Z,17.03
2022-12-18T07:00:17.112Z,15.83
2022-12-18T07:02:20.132Z,15.87
2022-12-18T07:04:22.968Z,22.13
2022-12-18T07:06:28.035Z,19.37
2022-12-18T07:08:31.078Z,20.80
2022-12-18T07:10:33.867Z,26.53
2022-12-18T07:12:37.449Z,19.13
2022-12-18T07:14:40.225Z,20.73
2022-12-18T07:16:43.173Z,16.73
2022-12-18T07:18:46.147Z,32.87
2022-12-18T07:20:48.841Z,139.37
2022-12-18T07:22:56.225Z,18.60
2022-12-18T07:24:59.649Z,19.73
2022-12-18T07:27:02.828Z,16.93
2022-12-18T07:29:05.605Z,17.50
2022-12-18T07:31:09.853Z,18.83
2022-12-18T07:33:12.640Z,16.03
2022-12-18T07:35:17.492Z,19.10
2022-12-18T07:37:23.435Z,18.43
2022-12-18T07:39:27.488Z,22.17
2022-12-18T07:41:30.322Z,19.77
2022-12-18T07:43:33.234Z,23.80
2022-12-18T07:45:36.081Z,23.03
2022-12-18T07:47:39.096Z,20.00
2022-12-18T07:49:41.802Z,21.57
2022-12-18T07:51:46.895Z,21.93
2022-12-18T07:53:52.136Z,24.37
2022-12-18T07:56:25.419Z,21.77
2022-12-18T07:58:21.551Z,22.43
2022-12-18T08:00:24.677Z,20.37
2022-12-18T08:02:27.416Z,18.23
2022-12-18T08:04:30.282Z,19.53
2022-12-18T08:06:33.091Z,18.77
2022-12-18T08:08:37.103Z,20.53
2022-12-18T08:10:40.069Z,18.63
2022-12-18T08:12:44.233Z,18.37
2022-12-18T08:14:46.903Z,19.13
2022-12-18T08:16:49.652Z,18.97
2022-12-18T08:18:54.213Z,19.67
2022-12-18T08:20:57.476Z,18.40
2022-12-18T08:23:00.238Z,17.53
2022-12-18T08:25:02.975Z,19.80
2022-12-18T08:27:29.451Z,17.13
2022-12-18T08:29:31.214Z,18.60
2022-12-18T08:31:34.075Z,17.90
2022-12-18T08:33:38.515Z,17.17
2022-12-18T08:35:45.742Z,20.33
2022-12-18T08:37:48.961Z,20.10
2022-12-18T08:39:51.758Z,20.53
2022-12-18T08:42:10.269Z,19.37
2022-12-18T08:44:30.980Z,19.20
2022-12-18T08:46:37.728Z,21.63
2022-12-18T08:48:40.481Z,25.00
2022-12-18T08:50:43.401Z,21.97
2022-12-18T08:52:46.059Z,22.90
2022-12-18T08:54:49.852Z,26.50
2022-12-18T08:56:52.795Z,22.87
2022-12-18T08:58:56.173Z,24.10
2022-12-18T09:01:02.093Z,22.93
2022-12-18T09:03:06.279Z,24.23
2022-12-18T09:05:09.623Z,24.93
2022-12-18T09:07:12.373Z,23.80
2022-12-18T09:09:15.331Z,24.30
2022-12-18T09:11:22.641Z,24.60
2022-12-18T09:13:25.387Z,22.27
2022-12-18T09:15:28.166Z,24.13
2022-12-18T09:17:31.099Z,23.07
2022-12-18T09:19:35.258Z,22.47
2022-12-18T09:21:46.134Z,23.73
2022-12-18T09:23:52.326Z,23.53
2022-12-18T09:26:00.747Z,24.20
2022-12-18T09:28:04.286Z,23.63
2022-12-18T09:30:08.571Z,22.33
2022-12-18T09:32:11.603Z,22.77
2022-12-18T09:34:14.466Z,22.30
2022-12-18T09:36:20.280Z,21.30
2022-12-18T09:38:24.927Z,24.20
2022-12-18T09:40:34.509Z,22.83
2022-12-18T09:42:37.301Z,22.53
2022-12-18T09:44:45.618Z,24.40
2022-12-18T09:46:54.716Z,30.40
2022-12-18T09:49:01.474Z,25.57
2022-12-18T09:51:12.852Z,26.10
2022-12-18T09:53:21.410Z,26.20
2022-12-18T09:55:32.181Z,25.07
2022-12-18T09:57:47.022Z,26.43
2022-12-18T09:59:55.072Z,24.60
2022-12-18T10:01:58.610Z,23.23
2022-12-18T10:04:02.973Z,22.83
2022-12-18T10:06:13.583Z,20.53
2022-12-18T10:08:23.564Z,21.43
2022-12-18T10:10:36.027Z,20.73
2022-12-18T10:12:47.466Z,22.87
2022-12-18T10:14:56.812Z,23.30
2022-12-18T10:17:10.070Z,22.67
2022-12-18T10:19:23.853Z,21.80
2022-12-18T10:21:34.117Z,22.87
2022-12-18T10:23:48.502Z,23.03
2022-12-18T10:25:57.488Z,22.73
2022-12-18T10:28:09.398Z,21.90
2022-12-18T10:30:16.010Z,22.17
2022-12-18T10:32:20.656Z,23.00
2022-12-18T10:34:23.819Z,24.33
2022-12-18T10:36:27.091Z,23.50
2022-12-18T10:38:31.099Z,25.13
2022-12-18T10:40:50.551Z,25.00
2022-12-18T10:43:06.142Z,26.80
2022-12-18T10:45:12.775Z,25.73
2022-12-18T10:47:20.022Z,26.30
2022-12-18T10:49:25.889Z,26.70
2022-12-18T10:51:31.722Z,26.27
2022-12-18T10:53:37.172Z,26.97
2022-12-18T10:55:46.467Z,27.43
2022-12-18T10:57:49.256Z,26.23
2022-12-18T10:59:53.821Z,26.17
2022-12-18T11:01:59.632Z,26.63
2022-12-18T11:04:09.647Z,26.80
2022-12-18T11:06:14.397Z,27.00
2022-12-18T11:08:23.565Z,25.80
2022-12-18T11:10:32.998Z,26.83
2022-12-18T11:12:37.060Z,25.80
2022-12-18T11:14:47.765Z,26.70
2022-12-18T11:19:23.410Z,25.47
2022-12-18T11:21:26.110Z,27.80
2022-12-18T11:23:29.584Z,28.20
2022-12-18T11:25:35.056Z,26.50
2022-12-18T11:27:40.368Z,26.80
2022-12-18T11:29:46.533Z,27.60
2022-12-18T11:31:49.810Z,28.43
2022-12-18T11:34:27.454Z,28.67
2022-12-18T11:36:24.687Z,29.53
2022-12-18T11:38:30.320Z,28.77
2022-12-18T11:40:41.021Z,29.90
2022-12-18T11:42:51.959Z,30.87
2022-12-18T11:44:59.193Z,31.00
2022-12-18T11:47:05.326Z,27.93
2022-12-18T11:49:17.292Z,28.57
2022-12-18T11:51:33.795Z,29.17
2022-12-18T11:53:39.145Z,31.00
2022-12-18T11:55:45.890Z,30.07
2022-12-18T11:58:00.356Z,30.23
2022-12-18T12:00:06.761Z,29.20
2022-12-18T12:02:30.514Z,30.10
2022-12-18T12:04:51.846Z,29.90
2022-12-18T12:07:04.078Z,28.93
2022-12-18T12:09:17.170Z,29.93
2022-12-18T12:11:30.116Z,30.47
2022-12-18T12:13:45.491Z,29.43
2022-12-18T12:15:54.828Z,30.70
2022-12-18T12:18:08.211Z,29.47
2022-12-18T12:20:20.792Z,28.67
2022-12-18T12:22:31.900Z,29.93
2022-12-18T12:24:47.152Z,29.23
2022-12-18T12:26:59.669Z,28.33
2022-12-18T12:29:24.051Z,26.53
2022-12-18T12:31:40.367Z,27.40
2022-12-18T12:33:53.873Z,26.97
2022-12-18T12:36:06.462Z,29.70
2022-12-18T12:38:14.946Z,28.53
2022-12-18T12:43:10.625Z,27.53
2022-12-18T12:45:23.793Z,28.77
2022-12-18T12:47:30.486Z,28.20
2022-12-18T12:49:40.477Z,29.43
2022-12-18T12:51:47.104Z,28.97
2022-12-18T12:53:50.994Z,28.53
2022-12-18T12:55:55.509Z,28.00
2022-12-18T12:58:07.528Z,29.60
2022-12-18T13:00:13.752Z,29.20
2022-12-18T13:02:26.753Z,28.27
2022-12-18T13:04:39.005Z,26.57
2022-12-18T13:06:48.570Z,27.57
2022-12-18T13:08:57.669Z,28.80
2022-12-18T13:11:15.122Z,28.00
2022-12-18T13:13:23.799Z,28.40
2022-12-18T13:15:37.588Z,27.93
2022-12-18T13:17:44.348Z,27.53
2022-12-18T13:19:50.951Z,28.10
2022-12-18T13:21:57.808Z,28.07
2022-12-18T13:24:17.711Z,28.30
2022-12-18T13:26:35.023Z,27.93
2022-12-18T13:28:54.508Z,28.30
2022-12-18T13:30:58.687Z,28.60
2022-12-18T13:33:56.277Z,28.23
2022-12-18T13:36:05.204Z,27.37
2022-12-18T13:38:23.427Z,27.67
2022-12-18T13:40:57.345Z,27.70
2022-12-18T13:43:15.098Z,27.23
2022-12-18T13:45:40.849Z,27.67
2022-12-18T13:47:45.962Z,27.40
2022-12-18T13:49:50.536Z,29.10
2022-12-18T13:51:55.867Z,29.53
2022-12-18T13:54:01.475Z,28.63
2022-12-18T13:56:05.455Z,29.73
2022-12-18T13:58:08.602Z,29.33
2022-12-18T14:00:27.398Z,28.80
2022-12-18T14:02:31.187Z,28.20
2022-12-18T14:04:36.000Z,29.00
2022-12-18T14:06:40.459Z,29.80
2022-12-18T14:08:45.601Z,30.10
2022-12-18T14:10:51.917Z,30.00
2022-12-18T14:13:01.103Z,29.17
2022-12-18T14:15:11.521Z,29.83
2022-12-18T14:17:15.015Z,32.27
2022-12-18T14:19:20.159Z,29.63
2022-12-18T14:21:26.845Z,28.93
2022-12-18T14:23:34.727Z,29.23
2022-12-18T14:25:37.568Z,30.80
2022-12-18T14:27:44.586Z,30.90
2022-12-18T14:29:47.411Z,29.67
2022-12-18T14:32:23.353Z,29.40
2022-12-18T14:34:28.638Z,29.77
2022-12-18T14:36:31.431Z,31.60
2022-12-18T14:38:37.506Z,29.73
2022-12-18T14:40:40.480Z,29.87
2022-12-18T14:42:44.192Z,29.87
2022-12-18T14:47:17.217Z,30.80
2022-12-18T14:49:25.294Z,30.90
2022-12-18T14:51:31.271Z,29.33
2022-12-18T14:53:41.531Z,29.07
2022-12-18T14:55:48.326Z,32.00
2022-12-18T14:57:53.418Z,32.03
2022-12-18T15:00:06.449Z,30.27
2022-12-18T15:02:20.604Z,30.80
2022-12-18T15:04:29.303Z,30.17
2022-12-18T15:06:35.474Z,28.83
2022-12-18T15:08:39.703Z,31.10
2022-12-18T15:10:49.400Z,38.03
2022-12-18T15:13:08.140Z,38.77
2022-12-18T15:15:46.357Z,40.30
2022-12-18T15:17:49.131Z,33.10
2022-12-18T15:19:54.818Z,32.87
2022-12-18T15:22:04.431Z,32.47
2022-12-18T15:24:20.018Z,33.47
2022-12-18T15:26:24.235Z,32.00
2022-12-18T15:28:29.170Z,30.30
2022-12-18T15:30:32.239Z,32.33
2022-12-18T15:32:35.722Z,31.73
2022-12-18T15:34:38.435Z,34.77
2022-12-18T15:36:41.492Z,30.77
2022-12-18T15:38:48.271Z,33.63
2022-12-18T15:40:52.892Z,31.30
2022-12-18T15:43:14.471Z,32.10
2022-12-18T15:45:17.208Z,32.63
2022-12-18T15:47:21.716Z,34.47
2022-12-18T15:49:24.588Z,35.53
2022-12-18T15:51:30.871Z,34.80
2022-12-18T15:53:35.399Z,31.93
2022-12-18T15:56:00.983Z,31.93
2022-12-18T15:58:05.567Z,33.80
2022-12-18T16:00:13.452Z,31.63
2022-12-18T16:02:19.794Z,35.40
2022-12-18T16:04:24.468Z,31.80
2022-12-18T16:06:30.494Z,32.50
2022-12-18T16:08:39.175Z,31.50
2022-12-18T16:10:43.907Z,32.53
2022-12-18T16:12:49.751Z,31.50
2022-12-18T16:14:54.033Z,32.37
2022-12-18T16:16:58.802Z,33.40
2022-12-18T16:19:01.537Z,29.67
2022-12-18T16:21:05.773Z,30.57
2022-12-18T16:23:08.784Z,30.50
2022-12-18T16:25:19.228Z,31.53
2022-12-18T16:27:22.518Z,32.93
2022-12-18T16:29:28.115Z,33.70
2022-12-18T16:31:32.420Z,33.50
2022-12-18T16:33:35.211Z,32.03
2022-12-18T16:35:38.137Z,34.17
2022-12-18T16:37:42.079Z,34.00
2022-12-18T16:39:45.214Z,34.47
2022-12-18T16:41:48.408Z,32.87
2022-12-18T16:43:54.772Z,33.77
2022-12-18T16:46:00.987Z,31.80
2022-12-18T16:48:05.603Z,31.23
2022-12-18T16:50:09.635Z,33.77
2022-12-18T16:52:12.803Z,33.23
2022-12-18T16:54:19.115Z,30.77
2022-12-18T16:56:25.268Z,29.97
2022-12-18T16:58:28.040Z,31.50
2022-12-18T17:00:31.194Z,30.60
2022-12-18T17:02:34.230Z,30.70
2022-12-18T17:04:38.754Z,32.70
2022-12-18T17:06:43.521Z,30.57
2022-12-18T17:08:46.252Z,31.17
2022-12-18T17:10:49.008Z,31.40
2022-12-18T17:12:52.255Z,31.00
2022-12-18T17:14:55.157Z,32.17
2022-12-18T17:17:20.400Z,31.30
2022-12-18T17:19:21.725Z,31.30
2022-12-18T17:21:25.835Z,29.97
2022-12-18T17:23:29.045Z,28.40
2022-12-18T17:25:32.074Z,29.40
2022-12-18T17:27:35.533Z,37.53
2022-12-18T17:29:43.865Z,35.37
2022-12-18T17:31:50.064Z,40.00
2022-12-18T17:33:53.507Z,39.37
2022-12-18T17:35:59.600Z,37.87
2022-12-18T17:38:03.683Z,37.23
2022-12-18T17:40:07.850Z,36.43
2022-12-18T17:42:15.200Z,33.60
2022-12-18T17:44:19.244Z,34.17
2022-12-18T17:46:22.476Z,36.83
2022-12-18T17:48:25.258Z,41.97
2022-12-18T17:50:28.658Z,37.27
2022-12-18T17:52:31.358Z,33.70
2022-12-18T17:54:39.235Z,34.50
2022-12-18T17:56:42.042Z,40.13
2022-12-18T17:58:45.482Z,45.63
2022-12-18T18:00:48.206Z,39.77
2022-12-18T18:02:51.019Z,37.23
2022-12-18T18:04:53.861Z,37.80
2022-12-18T18:06:56.599Z,38.33
2022-12-18T18:08:59.423Z,36.70
2022-12-18T18:11:20.555Z,39.23
2022-12-18T18:13:46.842Z,35.63
2022-12-18T18:15:56.901Z,33.73
2022-12-18T18:18:01.921Z,35.43
2022-12-18T18:20:06.049Z,33.80
2022-12-18T18:22:08.930Z,34.37
2022-12-18T18:24:14.072Z,33.60
2022-12-18T18:26:18.129Z,33.90
2022-12-18T18:28:21.498Z,33.23
2022-12-18T18:30:24.209Z,32.50
2022-12-18T18:32:27.201Z,35.40
2022-12-18T18:34:31.761Z,31.30
2022-12-18T18:36:34.690Z,34.03
2022-12-18T18:38:38.670Z,33.20
2022-12-18T18:40:41.397Z,34.03
2022-12-18T18:42:45.407Z,33.30
2022-12-18T18:44:49.144Z,34.20
2022-12-18T18:46:52.154Z,33.53
2022-12-18T18:48:55.894Z,34.60
2022-12-18T18:50:59.109Z,33.40
2022-12-18T18:53:02.171Z,33.20
2022-12-18T18:55:18.493Z,33.77
2022-12-18T18:57:30.421Z,32.83
2022-12-18T18:59:34.994Z,33.20
2022-12-18T19:01:38.140Z,34.57
2022-12-18T19:03:41.661Z,34.60
2022-12-18T19:05:47.641Z,32.23
2022-12-18T19:07:50.476Z,30.50
2022-12-18T19:09:54.205Z,33.03
2022-12-18T19:12:15.083Z,30.40
2022-12-18T19:14:18.079Z,34.17
2022-12-18T19:16:22.586Z,34.00
2022-12-18T19:18:27.211Z,36.07
2022-12-18T19:20:29.894Z,38.77
2022-12-18T19:22:32.621Z,36.53
2022-12-18T19:24:36.557Z,37.73
2022-12-18T19:26:39.439Z,36.07
2022-12-18T19:28:42.798Z,48.07
2022-12-18T19:30:47.136Z,41.43
2022-12-18T19:32:51.228Z,35.53
2022-12-18T19:34:54.851Z,34.77
2022-12-18T19:36:59.951Z,34.57
2022-12-18T19:39:09.771Z,34.73
2022-12-18T19:41:12.543Z,33.73
2022-12-18T19:43:16.889Z,34.27
2022-12-18T19:45:19.585Z,33.47
2022-12-18T19:47:22.471Z,32.50
2022-12-18T19:49:26.582Z,35.13
2022-12-18T19:51:30.801Z,35.03
2022-12-18T19:53:33.557Z,32.60
2022-12-18T19:55:41.685Z,35.53
2022-12-18T19:57:45.978Z,33.10
2022-12-18T19:59:48.702Z,33.80
2022-12-18T20:01:54.161Z,35.93
2022-12-18T20:03:58.081Z,34.63
2022-12-18T20:06:11.270Z,34.77
2022-12-18T20:08:13.991Z,35.90
2022-12-18T20:10:16.669Z,33.77
2022-12-18T20:12:21.102Z,33.97
2022-12-18T20:14:24.250Z,34.57
2022-12-18T20:16:27.044Z,34.23
2022-12-18T20:18:30.246Z,32.50
2022-12-18T20:20:33.273Z,34.37
2022-12-18T20:22:37.778Z,34.23
2022-12-18T20:24:40.605Z,33.10
2022-12-18T20:26:43.341Z,31.70
2022-12-18T20:28:46.114Z,33.07
2022-12-18T20:30:49.108Z,33.83
2022-12-18T20:32:51.864Z,34.50
2022-12-18T20:34:54.880Z,35.60
2022-12-18T20:36:58.136Z,32.37
2022-12-18T20:39:05.245Z,31.80
2022-12-18T20:41:10.886Z,33.60
2022-12-18T20:43:17.119Z,33.30
2022-12-18T20:45:20.758Z,32.30
2022-12-18T20:47:23.490Z,33.40
2022-12-18T20:49:27.830Z,33.73
2022-12-18T20:51:31.630Z,32.10
2022-12-18T20:53:35.015Z,31.47
2022-12-18T20:55:44.546Z,32.37
2022-12-18T20:57:47.316Z,31.73
2022-12-18T20:59:50.061Z,31.70
2022-12-18T21:01:53.037Z,32.03
2022-12-18T21:03:56.155Z,32.60
2022-12-18T21:05:59.124Z,33.10
2022-12-18T21:08:02.034Z,31.77
2022-12-18T21:10:06.404Z,30.27
2022-12-18T21:12:40.579Z,30.57
2022-12-18T21:14:48.173Z,30.20
2022-12-18T21:16:53.352Z,30.03
2022-12-18T21:18:56.157Z,29.83
2022-12-18T21:21:00.480Z,32.10
2022-12-18T21:23:15.564Z,31.37
2022-12-18T21:25:19.083Z,30.50
2022-12-18T21:27:23.258Z,31.03
2022-12-18T21:29:27.159Z,29.57
2022-12-18T21:31:31.296Z,29.73
2022-12-18T21:33:34.091Z,29.97
2022-12-18T21:35:36.825Z,30.23
2022-12-18T21:37:39.621Z,31.67
2022-12-18T21:39:42.985Z,31.53
2022-12-18T21:42:04.890Z,30.30
2022-12-18T21:44:11.548Z,31.03
2022-12-18T21:46:14.555Z,29.43
2022-12-18T21:48:17.354Z,29.43
2022-12-18T21:50:20.130Z,31.07
2022-12-18T21:52:25.689Z,30.77
2022-12-18T21:54:35.270Z,30.80
2022-12-18T21:56:45.377Z,30.73
2022-12-18T21:58:56.732Z,29.17
2022-12-18T22:01:01.602Z,29.13
2022-12-18T22:03:18.365Z,30.87
2022-12-18T22:05:22.294Z,29.03
2022-12-18T22:07:25.203Z,31.53
2022-12-18T22:09:27.904Z,29.87
2022-12-18T22:11:30.642Z,30.73
2022-12-18T22:13:33.566Z,30.17
2022-12-18T22:15:36.979Z,28.77
2022-12-18T22:17:41.171Z,30.07
2022-12-18T22:19:43.945Z,31.47
2022-12-18T22:21:49.184Z,28.67
2022-12-18T22:23:57.131Z,30.63
2022-12-18T22:25:59.958Z,31.07
2022-12-18T22:28:20.712Z,31.03
2022-12-18T22:30:23.610Z,31.13
2022-12-18T22:32:31.244Z,30.77
2022-12-18T22:34:36.918Z,30.63
2022-12-18T22:36:41.903Z,30.27
2022-12-18T22:38:44.650Z,28.97
2022-12-18T22:40:47.429Z,29.20
2022-12-18T22:42:50.641Z,31.10
2022-12-18T22:44:55.338Z,31.00
2022-12-18T22:47:06.802Z,32.17
2022-12-18T22:49:13.312Z,30.80
2022-12-18T22:51:19.945Z,32.60
2022-12-18T22:53:23.071Z,31.77
2022-12-18T22:55:25.951Z,31.40
2022-12-18T22:57:28.984Z,31.20
2022-12-18T22:59:31.658Z,31.10
2022-12-18T23:01:34.460Z,32.33
2022-12-18T23:03:39.488Z,31.97
2022-12-18T23:05:42.232Z,30.97
2022-12-18T23:07:46.953Z,30.47
2022-12-18T23:09:51.646Z,32.23
2022-12-18T23:12:04.317Z,31.30
2022-12-18T23:14:07.071Z,32.17
2022-12-18T23:16:12.486Z,30.87
2022-12-18T23:18:15.206Z,30.57
2022-12-18T23:20:18.035Z,31.00
2022-12-18T23:22:20.961Z,30.40
2022-12-18T23:24:25.234Z,32.13
2022-12-18T23:26:28.327Z,30.90
2022-12-18T23:28:33.153Z,29.00
2022-12-18T23:30:36.015Z,30.30
2022-12-18T23:32:38.771Z,29.93
2022-12-18T23:34:41.642Z,29.90
2022-12-18T23:36:45.445Z,30.87
2022-12-18T23:38:51.183Z,30.23
2022-12-18T23:40:56.517Z,30.40
2022-12-18T23:43:00.446Z,30.17
2022-12-18T23:45:03.932Z,30.70
2022-12-18T23:47:12.210Z,29.80
2022-12-18T23:49:15.088Z,30.13
2022-12-18T23:51:19.715Z,28.67
2022-12-18T23:53:22.453Z,30.07
2022-12-18T23:55:25.142Z,30.53
2022-12-18T23:57:29.190Z,30.73
2022-12-18T23:59:32.243Z,29.60
